sensor_id;sensor_type;location;lat;lon;timestamp;P1;durP1;ratioP1;P2;durP2;ratioP2
63817;SDS011;53093;55.092;73.476;2022-08-11T00:01:17;262.90;;;146.85;;
63817;SDS011;53093;55.092;73.476;2022-08-11T00:03:49;270.40;;;150.20;;
63817;SDS011;53093;55.092;73.476;2022-08-11T00:06:26;279.15;;;154.10;;
63817;SDS011;53093;55.092;73.476;2022-08-11T00:08:54;279.48;;;150.95;;
63817;SDS011;53093;55.092;73.476;2022-08-11T00:11:30;272.88;;;150.38;;
63817;SDS011;53093;55.092;73.476;2022-08-11T00:13:58;282.08;;;152.93;;
63817;SDS011;53093;55.092;73.476;2022-08-11T00:16:25;279.50;;;153.30;;
63817;SDS011;53093;55.092;73.476;2022-08-11T00:19:03;285.58;;;154.88;;
63817;SDS011;53093;55.092;73.476;2022-08-11T00:21:30;280.23;;;150.02;;
63817;SDS011;53093;55.092;73.476;2022-08-11T00:23:59;287.55;;;153.75;;
63817;SDS011;53093;55.092;73.476;2022-08-11T00:26:27;269.65;;;149.80;;
63817;SDS011;53093;55.092;73.476;2022-08-11T00:28:55;278.27;;;153.23;;
63817;SDS011;53093;55.092;73.476;2022-08-11T00:31:27;273.10;;;149.75;;
63817;SDS011;53093;55.092;73.476;2022-08-11T00:33:54;271.67;;;149.73;;
63817;SDS011;53093;55.092;73.476;2022-08-11T00:36:24;274.88;;;152.10;;
63817;SDS011;53093;55.092;73.476;2022-08-11T00:38:51;276.98;;;150.05;;
63817;SDS011;53093;55.092;73.476;2022-08-11T00:46:34;269.25;;;148.70;;
63817;SDS011;53093;55.092;73.476;2022-08-11T00:52:09;267.02;;;146.70;;
63817;SDS011;53093;55.092;73.476;2022-08-11T01:00:31;267.52;;;144.50;;
63817;SDS011;53093;55.092;73.476;2022-08-11T01:03:03;274.02;;;149.43;;
63817;SDS011;53093;55.092;73.476;2022-08-11T01:10:47;260.02;;;143.60;;
63817;SDS011;53093;55.092;73.476;2022-08-11T01:16:06;252.43;;;139.25;;
63817;SDS011;53093;55.092;73.476;2022-08-11T01:18:51;260.15;;;140.55;;
63817;SDS011;53093;55.092;73.476;2022-08-11T01:29:39;259.70;;;140.90;;
63817;SDS011;53093;55.092;73.476;2022-08-11T01:55:59;251.82;;;138.30;;
63817;SDS011;53093;55.092;73.476;2022-08-11T01:58:48;262.60;;;138.23;;
63817;SDS011;53093;55.092;73.476;2022-08-11T02:11:57;268.27;;;139.90;;
63817;SDS011;53093;55.092;73.476;2022-08-11T02:14:30;259.13;;;137.02;;
63817;SDS011;53093;55.092;73.476;2022-08-11T02:22:41;252.73;;;137.45;;
63817;SDS011;53093;55.092;73.476;2022-08-11T02:25:37;252.80;;;130.50;;
63817;SDS011;53093;55.092;73.476;2022-08-11T02:28:11;249.45;;;132.20;;
63817;SDS011;53093;55.092;73.476;2022-08-11T02:31:24;246.05;;;131.63;;
63817;SDS011;53093;55.092;73.476;2022-08-11T02:36:41;249.02;;;131.27;;
63817;SDS011;53093;55.092;73.476;2022-08-11T02:39:21;238.85;;;128.80;;
63817;SDS011;53093;55.092;73.476;2022-08-11T02:42:04;242.18;;;129.82;;
63817;SDS011;53093;55.092;73.476;2022-08-11T02:50:29;236.48;;;126.00;;
63817;SDS011;53093;55.092;73.476;2022-08-11T02:52:59;232.50;;;124.32;;
63817;SDS011;53093;55.092;73.476;2022-08-11T02:55:46;235.35;;;126.80;;
63817;SDS011;53093;55.092;73.476;2022-08-11T03:00:56;235.27;;;125.90;;
63817;SDS011;53093;55.092;73.476;2022-08-11T03:03:29;229.00;;;123.15;;
63817;SDS011;53093;55.092;73.476;2022-08-11T03:08:39;226.82;;;122.93;;
63817;SDS011;53093;55.092;73.476;2022-08-11T03:11:16;230.05;;;123.63;;
63817;SDS011;53093;55.092;73.476;2022-08-11T03:22:33;228.02;;;122.10;;
63817;SDS011;53093;55.092;73.476;2022-08-11T03:35:52;221.82;;;118.97;;
63817;SDS011;53093;55.092;73.476;2022-08-11T03:38:20;211.45;;;116.25;;
63817;SDS011;53093;55.092;73.476;2022-08-11T03:41:05;208.32;;;114.93;;
63817;SDS011;53093;55.092;73.476;2022-08-11T03:46:39;210.65;;;115.43;;
63817;SDS011;53093;55.092;73.476;2022-08-11T03:51:52;208.40;;;114.72;;
63817;SDS011;53093;55.092;73.476;2022-08-11T03:54:35;213.98;;;116.18;;
63817;SDS011;53093;55.092;73.476;2022-08-11T04:03:04;206.90;;;113.68;;
63817;SDS011;53093;55.092;73.476;2022-08-11T04:08:19;206.02;;;114.85;;
63817;SDS011;53093;55.092;73.476;2022-08-11T04:16:05;201.00;;;112.97;;
63817;SDS011;53093;55.092;73.476;2022-08-11T04:23:55;194.55;;;109.70;;
63817;SDS011;53093;55.092;73.476;2022-08-11T04:37:10;192.05;;;106.55;;
63817;SDS011;53093;55.092;73.476;2022-08-11T04:51:34;191.60;;;106.72;;
63817;SDS011;53093;55.092;73.476;2022-08-11T04:54:38;194.65;;;108.10;;
63817;SDS011;53093;55.092;73.476;2022-08-11T04:57:34;195.18;;;108.43;;
63817;SDS011;53093;55.092;73.476;2022-08-11T05:00:20;188.88;;;106.18;;
63817;SDS011;53093;55.092;73.476;2022-08-11T05:03:34;197.00;;;106.20;;
63817;SDS011;53093;55.092;73.476;2022-08-11T05:16:50;194.03;;;104.20;;
63817;SDS011;53093;55.092;73.476;2022-08-11T05:19:36;190.73;;;104.85;;
63817;SDS011;53093;55.092;73.476;2022-08-11T05:22:23;181.88;;;103.30;;
63817;SDS011;53093;55.092;73.476;2022-08-11T05:25:16;184.85;;;103.35;;
63817;SDS011;53093;55.092;73.476;2022-08-11T05:28:10;181.40;;;100.53;;
63817;SDS011;53093;55.092;73.476;2022-08-11T05:30:56;179.63;;;97.25;;
63817;SDS011;53093;55.092;73.476;2022-08-11T05:33:48;175.63;;;97.05;;
63817;SDS011;53093;55.092;73.476;2022-08-11T05:36:43;171.68;;;96.15;;
63817;SDS011;53093;55.092;73.476;2022-08-11T05:39:15;175.60;;;96.20;;
63817;SDS011;53093;55.092;73.476;2022-08-11T05:42:01;165.45;;;93.65;;
63817;SDS011;53093;55.092;73.476;2022-08-11T05:44:49;166.43;;;94.50;;
63817;SDS011;53093;55.092;73.476;2022-08-11T05:47:35;163.55;;;93.63;;
63817;SDS011;53093;55.092;73.476;2022-08-11T05:50:21;162.07;;;92.20;;
63817;SDS011;53093;55.092;73.476;2022-08-11T05:53:11;163.77;;;93.00;;
63817;SDS011;53093;55.092;73.476;2022-08-11T05:55:57;161.82;;;92.63;;
63817;SDS011;53093;55.092;73.476;2022-08-11T05:58:48;156.60;;;89.63;;
63817;SDS011;53093;55.092;73.476;2022-08-11T06:01:23;162.65;;;91.70;;
63817;SDS011;53093;55.092;73.476;2022-08-11T06:03:51;152.60;;;90.38;;
63817;SDS011;53093;55.092;73.476;2022-08-11T06:06:37;157.57;;;91.85;;
63817;SDS011;53093;55.092;73.476;2022-08-11T06:09:07;161.20;;;92.38;;
63817;SDS011;53093;55.092;73.476;2022-08-11T06:11:37;160.70;;;91.68;;
63817;SDS011;53093;55.092;73.476;2022-08-11T06:14:08;151.00;;;89.18;;
63817;SDS011;53093;55.092;73.476;2022-08-11T06:16:36;155.20;;;88.88;;
63817;SDS011;53093;55.092;73.476;2022-08-11T06:19:03;152.48;;;87.65;;
63817;SDS011;53093;55.092;73.476;2022-08-11T06:21:32;149.05;;;85.13;;
63817;SDS011;53093;55.092;73.476;2022-08-11T06:23:59;151.60;;;87.13;;
63817;SDS011;53093;55.092;73.476;2022-08-11T06:26:27;152.77;;;87.03;;
63817;SDS011;53093;55.092;73.476;2022-08-11T06:28:55;155.32;;;89.20;;
63817;SDS011;53093;55.092;73.476;2022-08-11T06:31:23;150.27;;;85.05;;
63817;SDS011;53093;55.092;73.476;2022-08-11T06:36:31;149.35;;;85.22;;
63817;SDS011;53093;55.092;73.476;2022-08-11T06:41:38;154.18;;;86.25;;
63817;SDS011;53093;55.092;73.476;2022-08-11T06:46:40;145.90;;;84.78;;
63817;SDS011;53093;55.092;73.476;2022-08-11T06:49:08;142.82;;;81.53;;
63817;SDS011;53093;55.092;73.476;2022-08-11T06:52:04;149.57;;;85.28;;
63817;SDS011;53093;55.092;73.476;2022-08-11T06:54:36;147.13;;;84.07;;
63817;SDS011;53093;55.092;73.476;2022-08-11T06:57:10;161.75;;;86.82;;
63817;SDS011;53093;55.092;73.476;2022-08-11T06:59:56;144.73;;;83.55;;
63817;SDS011;53093;55.092;73.476;2022-08-11T07:02:44;148.68;;;85.00;;
63817;SDS011;53093;55.092;73.476;2022-08-11T07:05:22;161.10;;;84.97;;
63817;SDS011;53093;55.092;73.476;2022-08-11T07:13:58;141.55;;;79.38;;
63817;SDS011;53093;55.092;73.476;2022-08-11T07:16:49;138.35;;;77.78;;
63817;SDS011;53093;55.092;73.476;2022-08-11T07:19:19;139.57;;;78.95;;
63817;SDS011;53093;55.092;73.476;2022-08-11T07:22:06;133.07;;;74.95;;
63817;SDS011;53093;55.092;73.476;2022-08-11T07:24:54;132.27;;;75.10;;
63817;SDS011;53093;55.092;73.476;2022-08-11T07:31:07;138.35;;;75.85;;
63817;SDS011;53093;55.092;73.476;2022-08-11T07:33:43;130.07;;;74.32;;
63817;SDS011;53093;55.092;73.476;2022-08-11T07:36:11;131.35;;;74.40;;
63817;SDS011;53093;55.092;73.476;2022-08-11T07:38:40;126.60;;;72.75;;
63817;SDS011;53093;55.092;73.476;2022-08-11T07:41:14;125.10;;;78.45;;
63817;SDS011;53093;55.092;73.476;2022-08-11T07:43:42;138.93;;;77.28;;
63817;SDS011;53093;55.092;73.476;2022-08-11T07:46:20;137.70;;;75.57;;
63817;SDS011;53093;55.092;73.476;2022-08-11T07:49:10;130.98;;;73.28;;
63817;SDS011;53093;55.092;73.476;2022-08-11T07:51:55;130.35;;;72.63;;
63817;SDS011;53093;55.092;73.476;2022-08-11T07:54:41;130.52;;;70.63;;
63817;SDS011;53093;55.092;73.476;2022-08-11T07:57:09;127.32;;;71.35;;
63817;SDS011;53093;55.092;73.476;2022-08-11T07:59:55;131.35;;;72.93;;
63817;SDS011;53093;55.092;73.476;2022-08-11T08:02:43;132.55;;;70.15;;
63817;SDS011;53093;55.092;73.476;2022-08-11T08:05:38;118.95;;;67.93;;
63817;SDS011;53093;55.092;73.476;2022-08-11T08:08:24;121.80;;;65.95;;
63817;SDS011;53093;55.092;73.476;2022-08-11T08:11:10;122.22;;;67.18;;
63817;SDS011;53093;55.092;73.476;2022-08-11T08:14:09;120.05;;;66.30;;
63817;SDS011;53093;55.092;73.476;2022-08-11T08:16:55;130.27;;;68.30;;
63817;SDS011;53093;55.092;73.476;2022-08-11T08:19:46;121.55;;;67.20;;
63817;SDS011;53093;55.092;73.476;2022-08-11T08:22:14;122.43;;;65.35;;
63817;SDS011;53093;55.092;73.476;2022-08-11T08:24:42;126.65;;;65.38;;
63817;SDS011;53093;55.092;73.476;2022-08-11T08:27:14;118.22;;;65.95;;
63817;SDS011;53093;55.092;73.476;2022-08-11T08:29:44;119.90;;;66.88;;
63817;SDS011;53093;55.092;73.476;2022-08-11T08:32:30;128.10;;;69.22;;
63817;SDS011;53093;55.092;73.476;2022-08-11T08:34:58;127.13;;;68.80;;
63817;SDS011;53093;55.092;73.476;2022-08-11T08:37:30;121.32;;;66.78;;
63817;SDS011;53093;55.092;73.476;2022-08-11T08:39:58;123.00;;;67.57;;
63817;SDS011;53093;55.092;73.476;2022-08-11T08:42:26;125.07;;;68.63;;
63817;SDS011;53093;55.092;73.476;2022-08-11T08:45:10;120.40;;;64.93;;
63817;SDS011;53093;55.092;73.476;2022-08-11T08:47:47;115.80;;;62.58;;
63817;SDS011;53093;55.092;73.476;2022-08-11T08:50:18;109.70;;;62.35;;
63817;SDS011;53093;55.092;73.476;2022-08-11T08:52:51;112.03;;;61.30;;
63817;SDS011;53093;55.092;73.476;2022-08-11T08:55:19;110.85;;;60.83;;
63817;SDS011;53093;55.092;73.476;2022-08-11T08:57:47;108.85;;;61.53;;
63817;SDS011;53093;55.092;73.476;2022-08-11T09:00:15;107.65;;;59.03;;
63817;SDS011;53093;55.092;73.476;2022-08-11T09:02:42;113.60;;;60.20;;
63817;SDS011;53093;55.092;73.476;2022-08-11T09:05:10;111.00;;;57.85;;
63817;SDS011;53093;55.092;73.476;2022-08-11T09:07:38;100.57;;;56.17;;
63817;SDS011;53093;55.092;73.476;2022-08-11T09:10:05;101.63;;;57.50;;
63817;SDS011;53093;55.092;73.476;2022-08-11T09:12:33;124.28;;;59.38;;
63817;SDS011;53093;55.092;73.476;2022-08-11T09:15:03;100.38;;;55.65;;
63817;SDS011;53093;55.092;73.476;2022-08-11T09:17:40;98.68;;;54.78;;
63817;SDS011;53093;55.092;73.476;2022-08-11T09:20:22;91.00;;;53.30;;
63817;SDS011;53093;55.092;73.476;2022-08-11T09:22:51;92.10;;;52.90;;
63817;SDS011;53093;55.092;73.476;2022-08-11T09:25:39;97.35;;;53.92;;
63817;SDS011;53093;55.092;73.476;2022-08-11T09:28:35;89.10;;;52.92;;
63817;SDS011;53093;55.092;73.476;2022-08-11T09:31:02;86.57;;;51.17;;
63817;SDS011;53093;55.092;73.476;2022-08-11T09:33:31;85.43;;;50.20;;
63817;SDS011;53093;55.092;73.476;2022-08-11T09:35:58;78.78;;;48.25;;
63817;SDS011;53093;55.092;73.476;2022-08-11T09:38:45;83.90;;;48.67;;
63817;SDS011;53093;55.092;73.476;2022-08-11T09:41:31;82.10;;;48.90;;
63817;SDS011;53093;55.092;73.476;2022-08-11T09:43:59;84.72;;;49.13;;
63817;SDS011;53093;55.092;73.476;2022-08-11T09:46:45;80.47;;;47.97;;
63817;SDS011;53093;55.092;73.476;2022-08-11T09:49:12;77.78;;;46.72;;
63817;SDS011;53093;55.092;73.476;2022-08-11T09:51:40;76.63;;;46.28;;
63817;SDS011;53093;55.092;73.476;2022-08-11T09:54:07;82.22;;;47.72;;
63817;SDS011;53093;55.092;73.476;2022-08-11T09:56:34;81.50;;;45.80;;
63817;SDS011;53093;55.092;73.476;2022-08-11T09:59:20;75.80;;;44.70;;
63817;SDS011;53093;55.092;73.476;2022-08-11T10:01:59;68.90;;;44.17;;
63817;SDS011;53093;55.092;73.476;2022-08-11T10:04:30;69.53;;;44.42;;
63817;SDS011;53093;55.092;73.476;2022-08-11T10:07:01;79.18;;;43.42;;
63817;SDS011;53093;55.092;73.476;2022-08-11T10:09:33;70.28;;;41.45;;
63817;SDS011;53093;55.092;73.476;2022-08-11T10:12:01;63.40;;;42.50;;
63817;SDS011;53093;55.092;73.476;2022-08-11T10:14:29;63.88;;;41.88;;
63817;SDS011;53093;55.092;73.476;2022-08-11T10:17:17;66.18;;;41.20;;
63817;SDS011;53093;55.092;73.476;2022-08-11T10:19:46;58.13;;;37.70;;
63817;SDS011;53093;55.092;73.476;2022-08-11T10:22:14;58.22;;;38.50;;
63817;SDS011;53093;55.092;73.476;2022-08-11T10:25:00;63.03;;;40.67;;
63817;SDS011;53093;55.092;73.476;2022-08-11T10:27:46;64.45;;;41.35;;
63817;SDS011;53093;55.092;73.476;2022-08-11T10:30:28;62.72;;;39.70;;
63817;SDS011;53093;55.092;73.476;2022-08-11T10:33:13;58.85;;;39.42;;
63817;SDS011;53093;55.092;73.476;2022-08-11T10:36:10;61.97;;;39.80;;
63817;SDS011;53093;55.092;73.476;2022-08-11T10:38:39;60.88;;;40.30;;
63817;SDS011;53093;55.092;73.476;2022-08-11T10:41:06;71.05;;;40.58;;
63817;SDS011;53093;55.092;73.476;2022-08-11T10:43:53;66.00;;;40.28;;
63817;SDS011;53093;55.092;73.476;2022-08-11T10:46:21;59.03;;;38.95;;
63817;SDS011;53093;55.092;73.476;2022-08-11T10:49:07;61.58;;;39.53;;
63817;SDS011;53093;55.092;73.476;2022-08-11T10:51:35;55.13;;;38.13;;
63817;SDS011;53093;55.092;73.476;2022-08-11T10:54:20;55.85;;;37.30;;
63817;SDS011;53093;55.092;73.476;2022-08-11T10:57:07;65.78;;;43.15;;
63817;SDS011;53093;55.092;73.476;2022-08-11T10:59:53;94.53;;;67.97;;
63817;SDS011;53093;55.092;73.476;2022-08-11T11:02:20;67.30;;;46.40;;
63817;SDS011;53093;55.092;73.476;2022-08-11T11:04:57;63.67;;;39.83;;
63817;SDS011;53093;55.092;73.476;2022-08-11T11:08:08;63.58;;;39.50;;
63817;SDS011;53093;55.092;73.476;2022-08-11T11:10:15;61.15;;;40.05;;
63817;SDS011;53093;55.092;73.476;2022-08-11T11:12:45;65.32;;;41.00;;
63817;SDS011;53093;55.092;73.476;2022-08-11T11:15:31;63.00;;;40.65;;
63817;SDS011;53093;55.092;73.476;2022-08-11T11:18:26;67.85;;;43.10;;
63817;SDS011;53093;55.092;73.476;2022-08-11T11:21:07;60.78;;;41.13;;
63817;SDS011;53093;55.092;73.476;2022-08-11T11:36:42;75.20;;;44.50;;
63817;SDS011;53093;55.092;73.476;2022-08-11T11:39:11;64.20;;;42.13;;
63817;SDS011;53093;55.092;73.476;2022-08-11T11:41:38;63.63;;;40.20;;
63817;SDS011;53093;55.092;73.476;2022-08-11T11:44:07;59.35;;;39.70;;
63817;SDS011;53093;55.092;73.476;2022-08-11T11:46:37;62.63;;;39.15;;
63817;SDS011;53093;55.092;73.476;2022-08-11T11:49:04;66.55;;;41.03;;
63817;SDS011;53093;55.092;73.476;2022-08-11T11:51:35;79.18;;;40.95;;
63817;SDS011;53093;55.092;73.476;2022-08-11T11:54:03;68.60;;;40.35;;
63817;SDS011;53093;55.092;73.476;2022-08-11T11:56:30;63.75;;;41.67;;
63817;SDS011;53093;55.092;73.476;2022-08-11T11:59:08;65.40;;;40.75;;
63817;SDS011;53093;55.092;73.476;2022-08-11T12:01:53;63.08;;;39.38;;
63817;SDS011;53093;55.092;73.476;2022-08-11T12:04:26;64.85;;;39.90;;
63817;SDS011;53093;55.092;73.476;2022-08-11T12:06:53;64.18;;;39.58;;
63817;SDS011;53093;55.092;73.476;2022-08-11T12:09:40;69.03;;;43.35;;
63817;SDS011;53093;55.092;73.476;2022-08-11T12:12:07;78.35;;;53.88;;
63817;SDS011;53093;55.092;73.476;2022-08-11T12:14:53;79.10;;;55.35;;
63817;SDS011;53093;55.092;73.476;2022-08-11T12:17:20;81.78;;;50.88;;
63817;SDS011;53093;55.092;73.476;2022-08-11T12:19:47;67.20;;;39.97;;
63817;SDS011;53093;55.092;73.476;2022-08-11T12:22:15;70.05;;;41.65;;
63817;SDS011;53093;55.092;73.476;2022-08-11T12:25:01;69.30;;;42.83;;
63817;SDS011;53093;55.092;73.476;2022-08-11T12:27:56;73.93;;;44.75;;
63817;SDS011;53093;55.092;73.476;2022-08-11T12:30:23;76.32;;;44.20;;
63817;SDS011;53093;55.092;73.476;2022-08-11T12:32:50;71.82;;;43.58;;
63817;SDS011;53093;55.092;73.476;2022-08-11T12:35:23;76.03;;;43.30;;
63817;SDS011;53093;55.092;73.476;2022-08-11T12:37:51;74.72;;;44.75;;
63817;SDS011;53093;55.092;73.476;2022-08-11T12:40:23;75.30;;;42.95;;
63817;SDS011;53093;55.092;73.476;2022-08-11T12:43:20;72.13;;;43.20;;
63817;SDS011;53093;55.092;73.476;2022-08-11T12:46:09;70.95;;;42.63;;
63817;SDS011;53093;55.092;73.476;2022-08-11T12:48:41;72.72;;;42.42;;
63817;SDS011;53093;55.092;73.476;2022-08-11T12:51:29;88.00;;;44.47;;
63817;SDS011;53093;55.092;73.476;2022-08-11T12:56:58;75.53;;;43.72;;
63817;SDS011;53093;55.092;73.476;2022-08-11T12:59:44;73.20;;;42.83;;
63817;SDS011;53093;55.092;73.476;2022-08-11T13:02:30;79.20;;;44.13;;
63817;SDS011;53093;55.092;73.476;2022-08-11T13:05:16;77.72;;;44.45;;
63817;SDS011;53093;55.092;73.476;2022-08-11T13:07:43;77.60;;;44.15;;
63817;SDS011;53093;55.092;73.476;2022-08-11T13:10:12;76.50;;;45.20;;
63817;SDS011;53093;55.092;73.476;2022-08-11T13:12:39;80.65;;;45.25;;
63817;SDS011;53093;55.092;73.476;2022-08-11T13:15:17;85.18;;;46.08;;
63817;SDS011;53093;55.092;73.476;2022-08-11T13:17:50;84.57;;;47.35;;
63817;SDS011;53093;55.092;73.476;2022-08-11T13:20:18;80.07;;;46.22;;
63817;SDS011;53093;55.092;73.476;2022-08-11T13:22:50;87.32;;;46.85;;
63817;SDS011;53093;55.092;73.476;2022-08-11T13:25:19;82.68;;;46.47;;
63817;SDS011;53093;55.092;73.476;2022-08-11T13:27:47;88.28;;;47.60;;
63817;SDS011;53093;55.092;73.476;2022-08-11T13:30:15;74.88;;;45.35;;
63817;SDS011;53093;55.092;73.476;2022-08-11T13:33:01;74.18;;;45.92;;
63817;SDS011;53093;55.092;73.476;2022-08-11T13:35:31;80.00;;;47.80;;
63817;SDS011;53093;55.092;73.476;2022-08-11T13:38:08;94.97;;;58.38;;
63817;SDS011;53093;55.092;73.476;2022-08-11T13:40:39;77.78;;;46.80;;
63817;SDS011;53093;55.092;73.476;2022-08-11T13:43:06;81.47;;;46.78;;
63817;SDS011;53093;55.092;73.476;2022-08-11T13:45:35;85.47;;;47.28;;
63817;SDS011;53093;55.092;73.476;2022-08-11T13:48:02;90.88;;;49.30;;
63817;SDS011;53093;55.092;73.476;2022-08-11T13:50:32;98.55;;;54.17;;
63817;SDS011;53093;55.092;73.476;2022-08-11T13:53:23;95.93;;;52.72;;
63817;SDS011;53093;55.092;73.476;2022-08-11T13:55:51;95.45;;;50.10;;
63817;SDS011;53093;55.092;73.476;2022-08-11T13:58:20;88.25;;;51.45;;
63817;SDS011;53093;55.092;73.476;2022-08-11T14:00:49;91.65;;;53.85;;
63817;SDS011;53093;55.092;73.476;2022-08-11T14:03:18;103.75;;;61.65;;
63817;SDS011;53093;55.092;73.476;2022-08-11T14:05:47;95.82;;;54.25;;
63817;SDS011;53093;55.092;73.476;2022-08-11T14:08:25;97.78;;;50.83;;
63817;SDS011;53093;55.092;73.476;2022-08-11T14:10:54;87.93;;;48.47;;
63817;SDS011;53093;55.092;73.476;2022-08-11T14:13:43;80.22;;;45.67;;
63817;SDS011;53093;55.092;73.476;2022-08-11T14:18:59;79.30;;;43.58;;
63817;SDS011;53093;55.092;73.476;2022-08-11T14:21:26;78.30;;;44.85;;
63817;SDS011;53093;55.092;73.476;2022-08-11T14:24:12;74.80;;;42.33;;
63817;SDS011;53093;55.092;73.476;2022-08-11T14:26:41;75.90;;;41.42;;
63817;SDS011;53093;55.092;73.476;2022-08-11T14:29:13;69.43;;;41.22;;
63817;SDS011;53093;55.092;73.476;2022-08-11T14:31:57;76.25;;;42.25;;
63817;SDS011;53093;55.092;73.476;2022-08-11T14:34:25;90.50;;;43.20;;
63817;SDS011;53093;55.092;73.476;2022-08-11T14:36:59;75.35;;;42.08;;
63817;SDS011;53093;55.092;73.476;2022-08-11T14:39:27;68.70;;;41.28;;
63817;SDS011;53093;55.092;73.476;2022-08-11T14:41:55;74.28;;;41.72;;
63817;SDS011;53093;55.092;73.476;2022-08-11T14:44:45;73.72;;;43.08;;
63817;SDS011;53093;55.092;73.476;2022-08-11T14:47:49;89.50;;;46.40;;
63817;SDS011;53093;55.092;73.476;2022-08-11T14:50:18;77.95;;;42.83;;
63817;SDS011;53093;55.092;73.476;2022-08-11T14:52:55;75.93;;;42.38;;
63817;SDS011;53093;55.092;73.476;2022-08-11T14:55:24;80.95;;;45.53;;
63817;SDS011;53093;55.092;73.476;2022-08-11T14:58:12;69.82;;;42.78;;
63817;SDS011;53093;55.092;73.476;2022-08-11T15:00:40;73.25;;;42.60;;
63817;SDS011;53093;55.092;73.476;2022-08-11T15:03:18;76.65;;;43.67;;
63817;SDS011;53093;55.092;73.476;2022-08-11T15:05:47;77.60;;;42.75;;
63817;SDS011;53093;55.092;73.476;2022-08-11T15:08:14;75.05;;;44.22;;
63817;SDS011;53093;55.092;73.476;2022-08-11T15:10:42;80.65;;;44.30;;
63817;SDS011;53093;55.092;73.476;2022-08-11T15:13:09;82.93;;;45.05;;
63817;SDS011;53093;55.092;73.476;2022-08-11T15:15:37;79.63;;;44.17;;
63817;SDS011;53093;55.092;73.476;2022-08-11T15:18:23;74.43;;;44.08;;
63817;SDS011;53093;55.092;73.476;2022-08-11T15:20:51;76.38;;;43.00;;
63817;SDS011;53093;55.092;73.476;2022-08-11T15:23:38;71.32;;;41.58;;
63817;SDS011;53093;55.092;73.476;2022-08-11T15:26:27;69.25;;;39.88;;
63817;SDS011;53093;55.092;73.476;2022-08-11T15:29:16;69.28;;;39.97;;
63817;SDS011;53093;55.092;73.476;2022-08-11T15:32:13;67.70;;;37.85;;
63817;SDS011;53093;55.092;73.476;2022-08-11T15:34:56;71.78;;;38.90;;
63817;SDS011;53093;55.092;73.476;2022-08-11T15:37:43;68.65;;;39.03;;
63817;SDS011;53093;55.092;73.476;2022-08-11T15:40:17;83.38;;;38.58;;
63817;SDS011;53093;55.092;73.476;2022-08-11T15:43:06;65.90;;;37.15;;
63817;SDS011;53093;55.092;73.476;2022-08-11T15:45:54;61.88;;;35.75;;
63817;SDS011;53093;55.092;73.476;2022-08-11T15:51:20;62.35;;;37.72;;
63817;SDS011;53093;55.092;73.476;2022-08-11T15:53:52;65.65;;;36.67;;
63817;SDS011;53093;55.092;73.476;2022-08-11T15:56:20;68.63;;;38.53;;
63817;SDS011;53093;55.092;73.476;2022-08-11T15:58:49;67.30;;;38.15;;
63817;SDS011;53093;55.092;73.476;2022-08-11T16:01:36;63.17;;;37.85;;
63817;SDS011;53093;55.092;73.476;2022-08-11T16:04:24;65.38;;;37.83;;
63817;SDS011;53093;55.092;73.476;2022-08-11T16:06:59;63.45;;;36.92;;
63817;SDS011;53093;55.092;73.476;2022-08-11T16:09:47;65.25;;;38.53;;
63817;SDS011;53093;55.092;73.476;2022-08-11T16:12:17;64.82;;;38.47;;
63817;SDS011;53093;55.092;73.476;2022-08-11T16:14:46;69.05;;;39.33;;
63817;SDS011;53093;55.092;73.476;2022-08-11T16:17:33;68.82;;;39.55;;
63817;SDS011;53093;55.092;73.476;2022-08-11T16:20:01;75.53;;;41.80;;
63817;SDS011;53093;55.092;73.476;2022-08-11T16:22:28;80.18;;;44.15;;
63817;SDS011;53093;55.092;73.476;2022-08-11T16:25:09;85.00;;;47.45;;
63817;SDS011;53093;55.092;73.476;2022-08-11T16:27:52;71.05;;;41.08;;
63817;SDS011;53093;55.092;73.476;2022-08-11T16:30:20;72.70;;;41.25;;
63817;SDS011;53093;55.092;73.476;2022-08-11T16:32:48;66.45;;;37.05;;
63817;SDS011;53093;55.092;73.476;2022-08-11T16:35:19;64.15;;;36.50;;
63817;SDS011;53093;55.092;73.476;2022-08-11T16:38:07;69.32;;;38.30;;
63817;SDS011;53093;55.092;73.476;2022-08-11T16:40:53;65.10;;;38.25;;
63817;SDS011;53093;55.092;73.476;2022-08-11T16:43:21;64.50;;;37.97;;
63817;SDS011;53093;55.092;73.476;2022-08-11T16:46:07;64.50;;;36.58;;
63817;SDS011;53093;55.092;73.476;2022-08-11T16:48:53;63.20;;;36.90;;
63817;SDS011;53093;55.092;73.476;2022-08-11T16:51:20;63.03;;;37.03;;
63817;SDS011;53093;55.092;73.476;2022-08-11T16:53:52;62.58;;;36.55;;
63817;SDS011;53093;55.092;73.476;2022-08-11T16:56:20;66.07;;;37.63;;
63817;SDS011;53093;55.092;73.476;2022-08-11T16:58:59;67.05;;;38.45;;
63817;SDS011;53093;55.092;73.476;2022-08-11T17:04:56;65.38;;;37.15;;
63817;SDS011;53093;55.092;73.476;2022-08-11T17:07:28;61.53;;;35.92;;
63817;SDS011;53093;55.092;73.476;2022-08-11T17:10:29;63.17;;;36.90;;
63817;SDS011;53093;55.092;73.476;2022-08-11T17:13:17;63.72;;;37.20;;
63817;SDS011;53093;55.092;73.476;2022-08-11T17:15:46;64.55;;;38.40;;
63817;SDS011;53093;55.092;73.476;2022-08-11T17:18:50;66.15;;;37.55;;
63817;SDS011;53093;55.092;73.476;2022-08-11T17:23:54;65.38;;;38.10;;
63817;SDS011;53093;55.092;73.476;2022-08-11T17:26:27;66.85;;;37.88;;
63817;SDS011;53093;55.092;73.476;2022-08-11T17:29:16;64.45;;;37.85;;
63817;SDS011;53093;55.092;73.476;2022-08-11T17:31:49;68.05;;;38.47;;
63817;SDS011;53093;55.092;73.476;2022-08-11T17:34:35;74.35;;;44.22;;
63817;SDS011;53093;55.092;73.476;2022-08-11T17:37:21;66.30;;;39.45;;
63817;SDS011;53093;55.092;73.476;2022-08-11T17:39:54;63.72;;;37.95;;
63817;SDS011;53093;55.092;73.476;2022-08-11T17:42:27;63.83;;;37.85;;
63817;SDS011;53093;55.092;73.476;2022-08-11T17:45:14;65.13;;;37.53;;
63817;SDS011;53093;55.092;73.476;2022-08-11T17:48:01;66.97;;;38.70;;
63817;SDS011;53093;55.092;73.476;2022-08-11T17:50:47;61.70;;;37.33;;
63817;SDS011;53093;55.092;73.476;2022-08-11T17:53:15;64.70;;;37.83;;
63817;SDS011;53093;55.092;73.476;2022-08-11T17:56:01;61.22;;;36.30;;
63817;SDS011;53093;55.092;73.476;2022-08-11T17:58:47;63.90;;;37.83;;
63817;SDS011;53093;55.092;73.476;2022-08-11T18:01:34;62.97;;;37.45;;
63817;SDS011;53093;55.092;73.476;2022-08-11T18:04:03;60.67;;;37.78;;
63817;SDS011;53093;55.092;73.476;2022-08-11T18:06:32;62.10;;;37.53;;
63817;SDS011;53093;55.092;73.476;2022-08-11T18:09:03;65.32;;;37.60;;
63817;SDS011;53093;55.092;73.476;2022-08-11T18:11:49;69.43;;;38.55;;
63817;SDS011;53093;55.092;73.476;2022-08-11T18:14:36;64.47;;;39.33;;
63817;SDS011;53093;55.092;73.476;2022-08-11T18:17:31;68.50;;;39.33;;
63817;SDS011;53093;55.092;73.476;2022-08-11T18:20:17;62.38;;;38.55;;
63817;SDS011;53093;55.092;73.476;2022-08-11T18:23:03;62.92;;;38.92;;